createdAt,value
2018-03-29T00:00:09.215Z,7.43
2018-03-29T00:02:36.972Z,7.25
2018-03-29T00:05:04.442Z,9.35
2018-03-29T00:07:31.900Z,8.93
2018-03-29T00:09:59.660Z,9.90
2018-03-29T00:12:27.116Z,9.13
2018-03-29T00:14:54.622Z,10.07
2018-03-29T00:17:22.125Z,9.70
2018-03-29T00:19:49.566Z,8.25
2018-03-29T00:22:17.253Z,9.07
2018-03-29T00:24:44.707Z,9.35
2018-03-29T00:27:12.194Z,11.12
2018-03-29T00:29:39.931Z,8.70
2018-03-29T00:32:07.709Z,8.10
2018-03-29T00:34:35.160Z,8.05
2018-03-29T00:37:02.747Z,7.87
2018-03-29T00:39:30.376Z,8.23
2018-03-29T00:41:57.836Z,7.93
2018-03-29T00:44:25.321Z,7.68
2018-03-29T00:46:53.061Z,8.45
2018-03-29T00:49:20.524Z,8.13
2018-03-29T00:51:48.276Z,7.55
2018-03-29T00:54:15.739Z,7.20
2018-03-29T00:56:43.202Z,6.87
2018-03-29T00:59:10.808Z,6.90
2018-03-29T01:01:38.417Z,7.00
2018-03-29T01:04:05.871Z,8.70
2018-03-29T01:06:33.639Z,7.18
2018-03-29T01:09:01.106Z,8.15
2018-03-29T01:11:28.552Z,7.37
2018-03-29T01:13:56.016Z,6.35
2018-03-29T01:16:23.481Z,8.45
2018-03-29T01:18:50.935Z,8.07
2018-03-29T01:21:18.399Z,8.02
2018-03-29T01:23:45.865Z,9.00
2018-03-29T01:26:13.401Z,8.05
2018-03-29T01:28:40.859Z,8.85
2018-03-29T01:31:08.839Z,8.30
2018-03-29T01:33:36.604Z,9.77
2018-03-29T01:36:04.064Z,9.55
2018-03-29T01:38:31.522Z,9.85
2018-03-29T01:40:58.983Z,9.90
2018-03-29T01:43:26.747Z,9.10
2018-03-29T01:45:54.200Z,8.45
2018-03-29T01:48:21.656Z,8.60
2018-03-29T01:50:49.123Z,7.25
2018-03-29T01:53:16.584Z,8.85
2018-03-29T01:55:44.045Z,7.50
2018-03-29T01:58:11.504Z,9.27
2018-03-29T02:00:38.964Z,7.60
2018-03-29T02:03:06.428Z,8.50
2018-03-29T02:05:33.884Z,7.97
2018-03-29T02:08:01.624Z,8.68
2018-03-29T02:10:29.389Z,9.30
2018-03-29T02:12:57.152Z,8.88
2018-03-29T02:15:24.712Z,8.77
2018-03-29T02:17:52.377Z,8.88
2018-03-29T02:20:19.890Z,9.05
2018-03-29T02:22:47.513Z,8.63
2018-03-29T02:25:14.976Z,8.80
2018-03-29T02:27:43.436Z,9.57
2018-03-29T02:30:10.900Z,8.00
2018-03-29T02:32:38.356Z,8.63
2018-03-29T02:35:05.826Z,7.40
2018-03-29T02:37:33.578Z,8.63
2018-03-29T02:40:01.040Z,7.82
2018-03-29T02:42:28.503Z,7.85
2018-03-29T02:44:56.255Z,7.60
2018-03-29T02:47:24.022Z,6.97
2018-03-29T02:49:51.483Z,6.93
2018-03-29T02:52:18.941Z,7.68
2018-03-29T02:54:46.708Z,7.60
2018-03-29T02:57:14.170Z,7.80
2018-03-29T02:59:41.628Z,6.18
2018-03-29T03:02:09.386Z,7.40
2018-03-29T03:04:36.864Z,6.47
2018-03-29T03:07:04.610Z,8.43
2018-03-29T03:09:32.067Z,6.03
2018-03-29T03:11:59.828Z,7.37
2018-03-29T03:14:27.592Z,7.30
2018-03-29T03:16:55.057Z,7.15
2018-03-29T03:19:22.511Z,6.78
2018-03-29T03:21:50.180Z,6.10
2018-03-29T03:24:17.688Z,7.68
2018-03-29T03:26:45.192Z,6.60
2018-03-29T03:29:12.652Z,6.37
2018-03-29T03:31:40.116Z,5.95
2018-03-29T03:34:07.580Z,7.87
2018-03-29T03:36:35.327Z,7.05
2018-03-29T03:39:02.794Z,6.47
2018-03-29T03:41:30.277Z,6.90
2018-03-29T03:43:58.012Z,6.62
2018-03-29T03:46:25.519Z,6.95
2018-03-29T03:48:52.978Z,6.68
2018-03-29T03:51:20.440Z,7.45
2018-03-29T03:53:48.128Z,6.07
2018-03-29T03:56:15.605Z,6.45
2018-03-29T03:58:43.072Z,6.97
2018-03-29T04:01:10.531Z,6.65
2018-03-29T04:03:38.004Z,8.75
2018-03-29T04:06:05.467Z,9.45
2018-03-29T04:08:32.966Z,9.98
2018-03-29T04:11:00.662Z,11.05
2018-03-29T04:13:28.155Z,10.30
2018-03-29T04:15:55.911Z,11.40
2018-03-29T04:18:23.604Z,9.93
2018-03-29T04:20:51.107Z,9.88
2018-03-29T04:23:18.579Z,10.32
2018-03-29T04:25:46.328Z,11.55
2018-03-29T04:28:13.793Z,11.05
2018-03-29T04:30:41.260Z,12.65
2018-03-29T04:33:09.024Z,11.48
2018-03-29T04:35:36.514Z,13.50
2018-03-29T04:38:04.160Z,15.18
2018-03-29T04:40:31.695Z,14.90
2018-03-29T04:42:59.202Z,15.07
2018-03-29T04:45:26.832Z,14.13
2018-03-29T04:47:55.320Z,16.05
2018-03-29T04:50:22.989Z,16.65
2018-03-29T04:52:50.472Z,15.85
2018-03-29T04:55:17.940Z,15.63
2018-03-29T04:57:45.411Z,16.23
2018-03-29T05:00:12.896Z,18.70
2018-03-29T05:02:40.676Z,17.33
2018-03-29T05:05:08.420Z,19.58
2018-03-29T05:07:35.899Z,17.48
2018-03-29T05:10:03.352Z,16.00
2018-03-29T05:12:31.024Z,14.93
2018-03-29T05:14:58.488Z,18.60
2018-03-29T05:17:25.955Z,18.15
2018-03-29T05:19:53.422Z,18.45
2018-03-29T05:22:20.935Z,18.17
2018-03-29T05:24:48.654Z,17.83
2018-03-29T05:27:19.751Z,16.55
2018-03-29T05:29:47.211Z,18.10
2018-03-29T05:32:14.684Z,19.48
2018-03-29T05:34:42.163Z,18.20
2018-03-29T05:37:09.630Z,18.73
2018-03-29T05:39:37.096Z,17.50
2018-03-29T05:42:04.588Z,16.92
2018-03-29T05:44:32.352Z,17.23
2018-03-29T05:46:59.871Z,17.65
2018-03-29T05:49:27.349Z,16.05
2018-03-29T05:51:55.036Z,17.25
2018-03-29T05:54:22.872Z,16.65
2018-03-29T05:56:50.331Z,15.63
2018-03-29T05:59:18.040Z,15.07
2018-03-29T06:01:45.500Z,15.65
2018-03-29T06:04:12.966Z,16.80
2018-03-29T06:06:40.704Z,16.50
2018-03-29T06:09:08.180Z,16.30
2018-03-29T06:11:35.649Z,15.98
2018-03-29T06:14:07.080Z,16.02
2018-03-29T06:16:40.471Z,17.45
2018-03-29T06:19:08.842Z,18.10
2018-03-29T06:21:36.518Z,18.33
2018-03-29T06:24:04.195Z,18.33
2018-03-29T06:26:31.683Z,16.77
2018-03-29T06:28:59.200Z,18.55
2018-03-29T06:31:27.543Z,18.05
2018-03-29T06:33:55.006Z,16.55
2018-03-29T06:36:22.468Z,17.27
2018-03-29T06:38:49.940Z,16.02
2018-03-29T06:41:17.423Z,17.35
2018-03-29T06:43:44.896Z,18.83
2018-03-29T06:46:12.344Z,19.05
2018-03-29T06:48:40.008Z,18.12
2018-03-29T06:51:07.478Z,17.08
2018-03-29T06:53:35.008Z,16.48
2018-03-29T06:56:02.469Z,16.35
2018-03-29T06:58:29.949Z,16.00
2018-03-29T07:00:57.707Z,18.62
2018-03-29T07:03:25.103Z,17.37
2018-03-29T07:05:52.595Z,15.68
2018-03-29T07:08:20.285Z,16.92
2018-03-29T07:10:48.541Z,15.50
2018-03-29T07:13:16.358Z,17.60
2018-03-29T07:15:43.820Z,18.25
2018-03-29T07:18:11.279Z,18.15
2018-03-29T07:20:38.764Z,17.50
2018-03-29T07:23:06.344Z,19.65
2018-03-29T07:25:34.112Z,17.65
2018-03-29T07:28:01.589Z,19.80
2018-03-29T07:30:29.333Z,19.40
2018-03-29T07:32:56.791Z,17.62
2018-03-29T07:35:24.253Z,17.83
2018-03-29T07:37:53.228Z,18.65
2018-03-29T07:40:20.972Z,17.08
2018-03-29T07:42:48.783Z,17.77
2018-03-29T07:45:16.393Z,19.05
2018-03-29T07:47:43.997Z,18.67
2018-03-29T07:50:11.455Z,16.67
2018-03-29T07:52:38.924Z,19.48
2018-03-29T07:55:06.538Z,19.50
2018-03-29T07:57:34.128Z,18.40
2018-03-29T08:00:01.617Z,18.15
2018-03-29T08:02:29.070Z,20.48
2018-03-29T08:04:56.816Z,18.85
2018-03-29T08:07:24.595Z,18.77
2018-03-29T08:09:52.244Z,17.85
2018-03-29T08:12:19.740Z,18.70
2018-03-29T08:14:47.260Z,19.92
2018-03-29T08:17:14.940Z,20.33
2018-03-29T08:19:42.415Z,19.08
2018-03-29T08:22:09.882Z,19.67
2018-03-29T08:24:37.341Z,20.90
2018-03-29T08:27:04.811Z,20.23
2018-03-29T08:29:32.285Z,20.00
2018-03-29T08:31:59.739Z,18.05
2018-03-29T08:34:27.231Z,19.17
2018-03-29T08:36:54.699Z,20.45
2018-03-29T08:39:22.446Z,19.05
2018-03-29T08:41:50.226Z,19.70
2018-03-29T08:44:17.990Z,20.02
2018-03-29T08:46:45.520Z,19.10
2018-03-29T08:49:13.111Z,21.08
2018-03-29T08:51:40.584Z,19.40
2018-03-29T08:54:08.144Z,20.70
2018-03-29T08:56:35.604Z,20.20
2018-03-29T08:59:03.344Z,21.15
2018-03-29T09:01:30.815Z,20.75
2018-03-29T09:03:58.579Z,21.77
2018-03-29T09:06:26.339Z,20.88
2018-03-29T09:08:53.880Z,20.80
2018-03-29T09:11:21.464Z,21.33
2018-03-29T09:13:49.016Z,21.58
2018-03-29T09:16:16.780Z,22.15
2018-03-29T09:18:44.506Z,22.58
2018-03-29T09:21:11.997Z,21.52
2018-03-29T09:23:39.714Z,22.10
2018-03-29T09:26:07.169Z,23.12
2018-03-29T09:28:34.936Z,23.77
2018-03-29T09:31:02.755Z,23.90
2018-03-29T09:33:30.521Z,22.45
2018-03-29T09:35:57.996Z,23.58
2018-03-29T09:38:25.462Z,21.55
2018-03-29T09:40:53.104Z,23.05
2018-03-29T09:43:20.567Z,22.55
2018-03-29T09:45:48.024Z,22.10
2018-03-29T09:48:15.556Z,21.73
2018-03-29T09:50:43.019Z,21.27
2018-03-29T09:53:10.792Z,24.40
2018-03-29T09:55:38.357Z,20.48
2018-03-29T09:58:05.923Z,22.20
2018-03-29T10:00:35.308Z,19.73
2018-03-29T10:03:08.449Z,20.83
2018-03-29T10:05:37.904Z,18.60
2018-03-29T10:08:05.383Z,19.10
2018-03-29T10:10:32.853Z,18.37
2018-03-29T10:13:00.599Z,18.80
2018-03-29T10:15:28.063Z,16.37
2018-03-29T10:17:55.769Z,18.30
2018-03-29T10:20:23.226Z,16.90
2018-03-29T10:22:50.742Z,19.10
2018-03-29T10:25:18.424Z,17.30
2018-03-29T10:27:45.956Z,17.25
2018-03-29T10:30:13.716Z,15.97
2018-03-29T10:32:41.147Z,15.63
2018-03-29T10:35:08.617Z,17.75
2018-03-29T10:37:36.461Z,15.27
2018-03-29T10:40:04.173Z,19.50
2018-03-29T10:42:31.656Z,19.93
2018-03-29T10:44:59.310Z,19.43
2018-03-29T10:47:27.556Z,18.85
2018-03-29T10:49:55.157Z,15.70
2018-03-29T10:52:22.628Z,19.05
2018-03-29T10:54:50.148Z,17.50
2018-03-29T10:57:17.622Z,17.25
2018-03-29T10:59:45.295Z,17.67
2018-03-29T11:02:12.775Z,18.23
2018-03-29T11:04:40.240Z,16.05
2018-03-29T11:07:07.747Z,17.03
2018-03-29T11:09:35.205Z,15.63
2018-03-29T11:12:02.688Z,20.47
2018-03-29T11:14:30.177Z,17.63
2018-03-29T11:16:57.636Z,14.27
2018-03-29T11:19:25.100Z,16.40
2018-03-29T11:21:52.799Z,15.40
2018-03-29T11:24:20.266Z,16.02
2018-03-29T11:26:48.016Z,13.80
2018-03-29T11:29:15.481Z,14.50
2018-03-29T11:31:43.188Z,15.40
2018-03-29T11:34:11.272Z,13.47
2018-03-29T11:36:38.759Z,12.90
2018-03-29T11:39:06.236Z,13.13
2018-03-29T11:41:34.004Z,12.93
2018-03-29T11:44:01.471Z,13.60
2018-03-29T11:46:28.968Z,13.70
2018-03-29T11:48:56.680Z,10.53
2018-03-29T11:51:24.173Z,12.27
2018-03-29T11:53:51.736Z,13.20
2018-03-29T11:56:19.204Z,12.70
2018-03-29T11:58:46.816Z,13.13
2018-03-29T12:01:14.587Z,13.47
2018-03-29T12:03:42.149Z,11.17
2018-03-29T12:06:09.611Z,12.53
2018-03-29T12:08:37.265Z,11.60
2018-03-29T12:11:04.735Z,11.30
2018-03-29T12:13:32.200Z,14.40
2018-03-29T12:15:59.947Z,12.73
2018-03-29T12:18:28.924Z,11.27
2018-03-29T12:20:56.396Z,13.10
2018-03-29T12:23:24.155Z,13.17
2018-03-29T12:25:51.670Z,12.97
2018-03-29T12:28:19.519Z,12.60
2018-03-29T12:30:48.068Z,9.33
2018-03-29T12:33:17.072Z,9.30
2018-03-29T12:35:44.535Z,10.17
2018-03-29T12:38:12.008Z,8.20
2018-03-29T12:40:40.368Z,8.97
2018-03-29T12:43:09.355Z,9.00
2018-03-29T12:45:38.331Z,10.43
2018-03-29T12:48:05.807Z,9.23
2018-03-29T12:50:33.275Z,9.37
2018-03-29T12:53:01.656Z,9.60
2018-03-29T12:55:40.954Z,12.00
2018-03-29T12:58:10.855Z,9.17
2018-03-29T13:00:38.611Z,11.30
2018-03-29T13:03:06.225Z,10.20
2018-03-29T13:05:33.984Z,9.57
2018-03-29T13:08:01.449Z,8.40
2018-03-29T13:10:29.213Z,8.90
2018-03-29T13:12:56.972Z,6.53
2018-03-29T13:15:24.748Z,6.30
2018-03-29T13:17:52.420Z,6.53
2018-03-29T13:20:20.272Z,6.07
2018-03-29T13:22:48.039Z,5.80
2018-03-29T13:25:15.779Z,5.00
2018-03-29T13:27:43.228Z,3.20
2018-03-29T13:30:10.688Z,2.63
2018-03-29T13:32:38.143Z,3.43
2018-03-29T13:35:05.604Z,3.93
2018-03-29T13:37:33.061Z,4.90
2018-03-29T13:40:00.549Z,3.90
2018-03-29T13:42:28.016Z,3.77
2018-03-29T13:44:55.768Z,4.20
2018-03-29T13:47:23.256Z,4.97
2018-03-29T13:49:50.713Z,4.30
2018-03-29T13:52:18.604Z,4.60
2018-03-29T13:54:46.070Z,3.90
2018-03-29T13:57:13.556Z,4.97
2018-03-29T13:59:41.028Z,4.33
2018-03-29T14:02:08.534Z,4.03
2018-03-29T14:04:35.992Z,3.13
2018-03-29T14:07:03.585Z,3.17
2018-03-29T14:09:31.129Z,3.93
2018-03-29T14:11:58.727Z,5.47
2018-03-29T14:14:26.192Z,5.43
2018-03-29T14:16:53.684Z,5.13
2018-03-29T14:19:21.164Z,5.17
2018-03-29T14:21:48.895Z,5.40
2018-03-29T14:24:16.648Z,4.80
2018-03-29T14:26:44.112Z,5.00
2018-03-29T14:29:11.665Z,4.80
2018-03-29T14:31:39.935Z,4.87
2018-03-29T14:34:07.592Z,4.60
2018-03-29T14:36:35.051Z,5.00
2018-03-29T14:39:02.750Z,5.40
2018-03-29T14:41:30.447Z,4.60
2018-03-29T14:43:57.855Z,6.03
2018-03-29T14:46:25.340Z,5.78
2018-03-29T14:48:53.214Z,6.10
2018-03-29T14:51:20.665Z,4.65
2018-03-29T14:53:48.276Z,4.93
2018-03-29T14:56:15.764Z,6.00
2018-03-29T14:58:43.423Z,6.40
2018-03-29T15:01:10.981Z,6.93
2018-03-29T15:03:38.428Z,6.60
2018-03-29T15:06:06.184Z,6.22
2018-03-29T15:08:33.674Z,6.85
2018-03-29T15:11:01.392Z,7.82
2018-03-29T15:13:28.893Z,7.18
2018-03-29T15:15:56.657Z,7.75
2018-03-29T15:18:24.142Z,9.38
2018-03-29T15:20:51.789Z,7.68
2018-03-29T15:23:20.107Z,9.70
2018-03-29T15:25:47.580Z,5.80
2018-03-29T15:28:15.048Z,6.30
2018-03-29T15:30:42.519Z,6.70
2018-03-29T15:33:10.064Z,6.37
2018-03-29T15:35:37.768Z,6.43
2018-03-29T15:38:05.251Z,7.07
2018-03-29T15:40:32.740Z,6.50
2018-03-29T15:43:00.200Z,5.63
2018-03-29T15:45:27.678Z,4.60
2018-03-29T15:47:55.173Z,4.70
2018-03-29T15:50:22.863Z,4.97
2018-03-29T15:52:50.340Z,5.10
2018-03-29T15:55:17.800Z,5.30
2018-03-29T15:57:45.264Z,5.17
2018-03-29T16:00:13.040Z,5.30
2018-03-29T16:02:40.801Z,5.10
2018-03-29T16:05:08.540Z,5.20
2018-03-29T16:07:36.007Z,4.70
2018-03-29T16:10:03.490Z,5.10
2018-03-29T16:12:31.931Z,6.83
2018-03-29T16:14:59.370Z,6.43
2018-03-29T16:17:26.828Z,6.40
2018-03-29T16:19:54.305Z,5.80
2018-03-29T16:22:21.788Z,4.60
2018-03-29T16:24:49.265Z,4.30
2018-03-29T16:27:17.507Z,4.00
2018-03-29T16:29:45.291Z,5.80
2018-03-29T16:32:12.754Z,5.00
2018-03-29T16:34:41.083Z,5.00
2018-03-29T16:37:08.585Z,3.93
2018-03-29T16:39:36.812Z,4.97
2018-03-29T16:42:04.417Z,4.77
2018-03-29T16:44:32.179Z,6.50
2018-03-29T16:47:01.332Z,3.87
2018-03-29T16:49:28.801Z,3.70
2018-03-29T16:51:56.344Z,4.20
2018-03-29T16:54:23.881Z,6.13
2018-03-29T16:56:51.344Z,4.10
2018-03-29T16:59:19.055Z,5.53
2018-03-29T17:01:46.473Z,6.90
2018-03-29T17:04:13.998Z,8.50
2018-03-29T17:06:41.479Z,4.10
2018-03-29T17:09:09.219Z,4.93
2018-03-29T17:11:36.983Z,5.23
2018-03-29T17:14:04.448Z,5.40
2018-03-29T17:16:32.107Z,6.00
2018-03-29T17:18:59.572Z,4.80
2018-03-29T17:21:27.133Z,5.68
2018-03-29T17:23:54.892Z,5.22
2018-03-29T17:26:22.667Z,5.72
2018-03-29T17:28:50.432Z,6.30
2018-03-29T17:31:17.892Z,7.55
2018-03-29T17:33:45.355Z,6.93
2018-03-29T17:36:12.822Z,6.55
2018-03-29T17:38:40.576Z,9.15
2018-03-29T17:41:08.064Z,5.20
2018-03-29T17:43:35.783Z,6.37
2018-03-29T17:46:03.269Z,6.72
2018-03-29T17:48:30.918Z,6.97
2018-03-29T17:50:58.404Z,6.30
2018-03-29T17:53:25.920Z,5.45
2018-03-29T17:55:53.432Z,5.53
2018-03-29T17:58:21.054Z,6.25
2018-03-29T18:00:49.287Z,5.28
2018-03-29T18:03:16.759Z,5.60
2018-03-29T18:05:44.359Z,6.30
2018-03-29T18:08:11.836Z,5.80
2018-03-29T18:10:39.351Z,7.80
2018-03-29T18:13:06.832Z,8.68
2018-03-29T18:15:34.578Z,7.35
2018-03-29T18:18:02.352Z,8.63
2018-03-29T18:20:30.139Z,9.88
2018-03-29T18:22:57.874Z,9.85
2018-03-29T18:25:25.339Z,12.98
2018-03-29T18:27:52.819Z,15.52
2018-03-29T18:30:20.464Z,19.37
2018-03-29T18:32:47.936Z,15.30
2018-03-29T18:35:15.403Z,22.95
2018-03-29T18:37:42.867Z,19.23
2018-03-29T18:40:10.387Z,11.82
2018-03-29T18:42:37.857Z,11.30
2018-03-29T18:45:05.608Z,9.93
2018-03-29T18:47:33.203Z,9.45
2018-03-29T18:50:00.833Z,9.65
2018-03-29T18:52:28.355Z,8.10
2018-03-29T18:54:55.827Z,8.13
2018-03-29T18:57:23.421Z,9.50
2018-03-29T18:59:50.892Z,15.65
2018-03-29T19:02:18.356Z,15.68
2018-03-29T19:04:45.896Z,15.90
2018-03-29T19:07:13.350Z,18.25
2018-03-29T19:09:40.828Z,12.50
2018-03-29T19:12:08.480Z,10.48
2018-03-29T19:14:35.932Z,8.73
2018-03-29T19:17:03.489Z,9.95
2018-03-29T19:19:31.155Z,9.90
2018-03-29T19:21:58.622Z,11.57
2018-03-29T19:24:26.071Z,9.90
2018-03-29T19:26:53.532Z,11.23
2018-03-29T19:29:20.991Z,13.40
2018-03-29T19:31:48.496Z,18.58
2018-03-29T19:34:15.999Z,11.02
2018-03-29T19:36:43.460Z,10.50
2018-03-29T19:39:11.140Z,10.60
2018-03-29T19:41:38.592Z,9.68
2018-03-29T19:44:06.136Z,10.68
2018-03-29T19:46:33.605Z,10.13
2018-03-29T19:49:01.286Z,10.68
2018-03-29T19:51:28.829Z,11.63
2018-03-29T19:53:56.492Z,11.25
2018-03-29T19:56:23.947Z,11.23
2018-03-29T19:58:51.407Z,13.95
2018-03-29T20:01:18.881Z,12.23
2018-03-29T20:03:46.343Z,12.50
2018-03-29T20:06:13.796Z,12.13
2018-03-29T20:08:41.260Z,12.90
2018-03-29T20:11:08.716Z,14.02
2018-03-29T20:13:36.255Z,13.88
2018-03-29T20:16:03.712Z,10.90
2018-03-29T20:18:31.179Z,16.20
2018-03-29T20:20:58.841Z,11.73
2018-03-29T20:23:26.324Z,11.43
2018-03-29T20:25:53.803Z,10.07
2018-03-29T20:28:21.305Z,9.35
2018-03-29T20:30:48.976Z,10.73
2018-03-29T20:33:16.447Z,10.32
2018-03-29T20:35:43.903Z,13.85
2018-03-29T20:38:11.440Z,10.73
2018-03-29T20:40:39.149Z,12.18
2018-03-29T20:43:06.617Z,10.70
2018-03-29T20:45:34.589Z,10.88
2018-03-29T20:48:02.063Z,10.23
2018-03-29T20:50:29.560Z,10.43
2018-03-29T20:52:57.111Z,10.30
2018-03-29T20:55:24.884Z,9.68
2018-03-29T20:57:52.347Z,9.02
2018-03-29T21:00:19.979Z,10.45
2018-03-29T21:02:47.470Z,10.30
2018-03-29T21:05:15.011Z,8.68
2018-03-29T21:07:42.481Z,11.52
2018-03-29T21:10:10.661Z,10.00
2018-03-29T21:12:38.919Z,9.68
2018-03-29T21:15:06.400Z,9.32
2018-03-29T21:17:34.706Z,10.73
2018-03-29T21:20:02.367Z,11.05
2018-03-29T21:22:29.820Z,8.82
2018-03-29T21:24:57.296Z,11.68
2018-03-29T21:27:24.903Z,8.82
2018-03-29T21:29:52.427Z,13.07
2018-03-29T21:32:20.123Z,10.13
2018-03-29T21:34:47.592Z,9.68
2018-03-29T21:37:15.345Z,9.57
2018-03-29T21:39:43.107Z,10.85
2018-03-29T21:42:10.873Z,9.70
2018-03-29T21:44:38.336Z,10.07
2018-03-29T21:47:06.103Z,9.52
2018-03-29T21:49:33.694Z,10.60
2018-03-29T21:52:02.244Z,10.52
2018-03-29T21:54:30.013Z,11.07
2018-03-29T21:56:57.463Z,10.60
2018-03-29T21:59:24.939Z,10.52
2018-03-29T22:01:52.615Z,9.32
2018-03-29T22:04:20.072Z,9.18
2018-03-29T22:06:47.530Z,9.75
2018-03-29T22:09:15.012Z,10.55
2018-03-29T22:11:42.465Z,11.73
2018-03-29T22:14:10.138Z,10.57
2018-03-29T22:16:37.609Z,10.00
2018-03-29T22:19:05.085Z,10.18
2018-03-29T22:21:32.568Z,11.63
2018-03-29T22:24:00.792Z,9.80
2018-03-29T22:26:28.304Z,8.70
2018-03-29T22:28:55.888Z,8.93
2018-03-29T22:31:23.348Z,9.10
2018-03-29T22:33:51.025Z,10.23
2018-03-29T22:36:18.561Z,10.75
2018-03-29T22:38:46.011Z,11.93
2018-03-29T22:41:13.530Z,11.20
2018-03-29T22:43:41.010Z,13.70
2018-03-29T22:46:08.485Z,15.48
2018-03-29T22:48:36.238Z,16.02
2018-03-29T22:51:03.723Z,17.37
2018-03-29T22:53:31.364Z,15.02
2018-03-29T22:55:58.928Z,16.45
2018-03-29T22:58:26.675Z,13.38
2018-03-29T23:00:54.446Z,10.23
2018-03-29T23:03:21.900Z,12.52
2018-03-29T23:05:49.365Z,13.60
2018-03-29T23:08:16.843Z,13.52
2018-03-29T23:10:44.500Z,10.93
2018-03-29T23:13:11.957Z,10.95
2018-03-29T23:15:39.431Z,10.63
2018-03-29T23:18:06.956Z,9.23
2018-03-29T23:20:34.416Z,11.00
2018-03-29T23:23:02.097Z,9.82
2018-03-29T23:25:30.483Z,10.18
2018-03-29T23:27:57.948Z,10.35
2018-03-29T23:30:25.403Z,8.43
2018-03-29T23:32:52.934Z,9.85
2018-03-29T23:35:20.395Z,11.18
2018-03-29T23:37:47.855Z,9.55
2018-03-29T23:40:15.312Z,9.15
2018-03-29T23:42:42.768Z,9.45
2018-03-29T23:45:10.348Z,9.80
2018-03-29T23:47:38.599Z,9.75
2018-03-29T23:50:06.059Z,8.70
2018-03-29T23:52:33.541Z,9.75
2018-03-29T23:55:01.294Z,9.18
2018-03-29T23:57:29.050Z,9.45
2018-03-29T23:59:56.812Z,9.38
